East Cleveland, Ohio
Current Conditions -  °F | °C
As of 2:53 AM on Tuesday 21 Oct 2014 (Local Time) from KBKL Reporting Station
Overcast Overcast  
Wind Chill: 55°   Ceiling: 1800
Heat Index: 55°   Visibility: 10mi
Dew Point: 50°   Wind: 15mph
Humidity: 83%   Direction: 340°NNW
Pressure: 29.82"   Gusts: NA
Location:  41.53°N, 81.58°W
Report Text: KBKL 210653Z 34013KT 10SM BKN018 OVC026 13/10 A2982 RMK AO2 SLP097 T01280100
Loading
Personal Weather Stations






























Interactive Weather Map
Tropical Storm Tracking
New forecast layout! Learn more

10-Day Weather Forecast

Advertisements
Track Severe Weather on mobile